Time;durP1;ratioP1;P1;durP2;ratioP2;P2;SDS_P1;SDS_P2;PMS_P1;PMS_P2;Temp;Humidity;BMP_temperature;BMP_pressure;BME280_temperature;BME280_humidity;BME280_pressure;Samples;Min_cycle;Max_cycle;Signal;HPM_P1;HPM_P2
2022/04/24 00:02:17;;;;;;;4.50;4.20;;;19.00;43.80;;;;;;5061676;28;20222;-57
2022/04/24 00:04:43;;;;;;;3.80;3.60;;;19.00;43.80;;;;;;5062909;28;20556;-57
2022/04/24 00:07:09;;;;;;;4.83;4.53;;;19.00;43.80;;;;;;5056384;28;20252;-56
2022/04/24 00:09:37;;;;;;;4.10;3.83;;;19.00;43.80;;;;;;5057049;28;20257;-57
2022/04/24 00:12:04;;;;;;;3.97;3.77;;;19.00;43.80;;;;;;5058951;28;20242;-56
2022/04/24 00:14:29;;;;;;;3.83;3.63;;;19.00;43.80;;;;;;5058608;28;20421;-57
2022/04/24 00:16:55;;;;;;;4.37;4.17;;;19.00;43.80;;;;;;5063383;28;20974;-57
2022/04/24 00:19:20;;;;;;;4.77;4.50;;;19.00;43.80;;;;;;5060127;28;20277;-57
2022/04/24 00:21:46;;;;;;;4.13;3.93;;;19.00;43.80;;;;;;5059298;28;20222;-59
2022/04/24 00:24:12;;;;;;;3.97;3.67;;;19.00;43.80;;;;;;5059748;28;20225;-58
2022/04/24 00:26:38;;;;;;;4.20;4.00;;;19.00;43.80;;;;;;5060593;28;20426;-56
2022/04/24 00:29:04;;;;;;;4.57;4.17;;;19.00;43.80;;;;;;5055001;28;20462;-57
2022/04/24 00:31:30;;;;;;;4.10;3.90;;;19.00;43.80;;;;;;5060841;28;20420;-56
2022/04/24 00:33:55;;;;;;;4.87;4.57;;;19.00;43.80;;;;;;5060013;28;20230;-58
2022/04/24 00:36:21;;;;;;;4.20;3.90;;;19.00;43.80;;;;;;5061039;28;20230;-59
2022/04/24 00:38:47;;;;;;;3.93;3.73;;;19.00;43.80;;;;;;5057500;28;20214;-58
2022/04/24 00:41:12;;;;;;;4.23;4.03;;;19.00;43.80;;;;;;5065598;28;20243;-57
2022/04/24 00:43:38;;;;;;;4.10;3.90;;;19.00;43.80;;;;;;5060486;28;20268;-58
2022/04/24 00:46:18;;;;;;;3.90;3.70;;;19.00;44.60;;;;;;5059263;28;20253;-57
2022/04/24 00:48:43;;;;;;;4.03;3.83;;;19.00;43.80;;;;;;5059402;28;20262;-56
2022/04/24 00:51:10;;;;;;;4.10;3.90;;;19.00;43.90;;;;;;5054967;28;21287;-56
2022/04/24 00:53:36;;;;;;;3.83;3.63;;;19.00;43.80;;;;;;5058742;28;20218;-57
2022/04/24 00:56:02;;;;;;;4.10;3.90;;;19.00;43.80;;;;;;5064274;28;20532;-58
2022/04/24 00:58:28;;;;;;;3.70;3.50;;;19.00;43.80;;;;;;5060502;28;20417;-57
2022/04/24 01:00:56;;;;;;;3.67;3.47;;;18.90;43.70;;;;;;5057284;28;20453;-58
2022/04/24 01:03:22;;;;;;;3.67;3.47;;;19.00;44.60;;;;;;5063261;28;20461;-57
2022/04/24 01:05:47;;;;;;;4.03;3.83;;;19.00;43.80;;;;;;5020605;28;20443;-57
2022/04/24 01:08:13;;;;;;;4.00;3.70;;;18.90;43.70;;;;;;5059867;28;20449;-56
2022/04/24 01:10:39;;;;;;;4.00;3.77;;;18.90;43.70;;;;;;5059047;28;20237;-57
2022/04/24 01:13:05;;;;;;;3.30;3.10;;;18.90;43.70;;;;;;5064528;28;20335;-57
2022/04/24 01:15:32;;;;;;;3.70;3.50;;;18.90;43.70;;;;;;5059998;28;20321;-56
2022/04/24 01:17:58;;;;;;;3.60;3.40;;;18.90;43.70;;;;;;5062084;28;20451;-56
2022/04/24 01:20:24;;;;;;;3.97;3.77;;;18.90;43.70;;;;;;5058417;28;20436;-59
2022/04/24 01:22:50;;;;;;;3.87;3.67;;;18.90;43.70;;;;;;5060659;28;20445;-58
2022/04/24 01:25:16;;;;;;;4.30;4.10;;;18.90;43.70;;;;;;5063352;28;20449;-56
2022/04/24 01:27:41;;;;;;;3.90;3.70;;;18.90;43.70;;;;;;5061182;28;20760;-57
2022/04/24 01:30:08;;;;;;;3.60;3.40;;;18.90;43.70;;;;;;5061536;28;20279;-58
2022/04/24 01:32:38;;;;;;;3.70;3.50;;;18.90;43.70;;;;;;5064615;28;20222;-59
2022/04/24 01:35:05;;;;;;;3.63;3.43;;;18.90;43.70;;;;;;5066251;28;20410;-57
2022/04/24 01:37:31;;;;;;;3.73;3.53;;;18.90;43.70;;;;;;5058695;28;20519;-56
2022/04/24 01:39:56;;;;;;;3.77;3.57;;;18.90;43.70;;;;;;5067463;28;20409;-56
2022/04/24 01:42:23;;;;;;;3.23;3.03;;;18.90;43.70;;;;;;5058051;28;20210;-61
2022/04/24 01:44:48;;;;;;;3.97;3.77;;;18.90;43.70;;;;;;5059518;28;20218;-57
2022/04/24 01:47:14;;;;;;;3.17;2.97;;;18.90;43.70;;;;;;5064787;28;20437;-59
2022/04/24 01:49:40;;;;;;;3.60;3.40;;;18.90;43.70;;;;;;5067042;28;20226;-57
2022/04/24 01:52:06;;;;;;;3.43;3.23;;;18.90;43.70;;;;;;5063915;28;20948;-57
2022/04/24 01:54:32;;;;;;;3.30;3.10;;;18.90;43.70;;;;;;5066352;28;20238;-57
2022/04/24 01:56:58;;;;;;;3.80;3.60;;;18.90;43.70;;;;;;5057667;28;20463;-57
2022/04/24 01:59:23;;;;;;;3.20;3.00;;;18.90;43.70;;;;;;5059534;28;20553;-57
2022/04/24 02:01:49;;;;;;;3.53;3.33;;;18.90;43.70;;;;;;5063110;28;20248;-59
2022/04/24 02:04:16;;;;;;;3.57;3.37;;;18.90;43.70;;;;;;5061553;28;20244;-59
2022/04/24 02:06:42;;;;;;;3.40;3.20;;;18.90;43.70;;;;;;5059468;28;20451;-57
2022/04/24 02:09:08;;;;;;;2.90;2.70;;;18.90;43.70;;;;;;5064302;28;20545;-57
2022/04/24 02:11:33;;;;;;;3.40;3.20;;;18.90;43.70;;;;;;5062571;28;20222;-56
2022/04/24 02:13:59;;;;;;;3.67;3.47;;;18.90;43.70;;;;;;5059972;28;20300;-58
2022/04/24 02:16:25;;;;;;;3.70;3.50;;;18.90;43.70;;;;;;5061413;28;20634;-57
2022/04/24 02:18:50;;;;;;;3.30;3.10;;;18.90;43.70;;;;;;5067604;28;20225;-57
2022/04/24 02:21:16;;;;;;;3.47;3.20;;;18.90;44.10;;;;;;5058283;28;20225;-57
2022/04/24 02:23:42;;;;;;;3.73;3.53;;;18.90;43.70;;;;;;5061040;28;20661;-57
2022/04/24 02:26:07;;;;;;;3.20;3.00;;;18.90;43.70;;;;;;5041007;28;20262;-57
2022/04/24 02:28:33;;;;;;;3.17;2.97;;;18.90;43.70;;;;;;5063062;28;20229;-59
2022/04/24 02:30:58;;;;;;;3.13;2.93;;;18.90;43.70;;;;;;5064963;28;20218;-57
2022/04/24 02:33:24;;;;;;;3.20;3.00;;;18.90;43.70;;;;;;5063500;28;20225;-57
2022/04/24 02:35:49;;;;;;;3.27;3.07;;;18.90;43.70;;;;;;5057771;28;20259;-57
2022/04/24 02:38:15;;;;;;;3.40;3.20;;;18.90;43.70;;;;;;5061414;28;20222;-56
2022/04/24 02:40:41;;;;;;;3.27;3.07;;;18.90;43.70;;;;;;5063215;28;20254;-57
2022/04/24 02:43:06;;;;;;;2.97;2.87;;;18.90;43.70;;;;;;5059453;28;20721;-57
2022/04/24 02:45:33;;;;;;;3.10;2.80;;;18.90;43.70;;;;;;5046229;28;20225;-57
2022/04/24 02:47:58;;;;;;;3.23;3.03;;;18.90;43.70;;;;;;5061978;28;20226;-58
2022/04/24 02:50:24;;;;;;;3.10;2.90;;;18.90;43.70;;;;;;5058534;28;20901;-57
2022/04/24 02:52:52;;;;;;;2.83;2.73;;;18.90;44.50;;;;;;5058166;28;20219;-57
2022/04/24 02:55:19;;;;;;;3.43;3.23;;;18.90;43.70;;;;;;5064420;28;20316;-57
2022/04/24 02:57:46;;;;;;;3.03;2.90;;;18.90;43.70;;;;;;5058967;28;20428;-57
2022/04/24 03:00:13;;;;;;;2.90;2.80;;;18.90;43.70;;;;;;5061649;28;20425;-58
2022/04/24 03:02:41;;;;;;;3.57;3.10;;;18.90;43.70;;;;;;5061513;28;20495;-56
2022/04/24 03:05:07;;;;;;;3.40;3.20;;;18.90;43.70;;;;;;5062097;28;20424;-57
2022/04/24 03:07:33;;;;;;;3.03;2.83;;;18.90;43.70;;;;;;5059906;28;20934;-58
2022/04/24 03:09:58;;;;;;;3.40;3.20;;;18.90;43.70;;;;;;5063388;28;20569;-57
2022/04/24 03:12:24;;;;;;;2.90;2.70;;;18.90;43.70;;;;;;5058309;28;20249;-57
2022/04/24 03:14:49;;;;;;;2.50;2.40;;;18.90;43.70;;;;;;5058597;28;20295;-57
2022/04/24 03:17:15;;;;;;;3.30;3.10;;;18.90;43.70;;;;;;5063202;28;20256;-57
2022/04/24 03:19:41;;;;;;;3.00;2.80;;;18.90;43.70;;;;;;5058548;28;20218;-57
2022/04/24 03:22:06;;;;;;;2.97;2.77;;;18.90;43.70;;;;;;5060155;28;20324;-56
2022/04/24 03:24:32;;;;;;;3.40;3.20;;;18.90;43.70;;;;;;5062473;28;20268;-57
2022/04/24 03:26:57;;;;;;;2.83;2.73;;;18.90;43.70;;;;;;5063132;28;20223;-56
2022/04/24 03:29:24;;;;;;;3.03;2.90;;;18.90;43.70;;;;;;5057608;28;20226;-60
2022/04/24 03:31:49;;;;;;;2.80;2.70;;;18.90;43.70;;;;;;5063607;28;20241;-58
2022/04/24 03:34:15;;;;;;;3.37;3.17;;;18.90;43.70;;;;;;5059709;28;20903;-58
2022/04/24 03:36:40;;;;;;;3.20;3.07;;;18.90;43.70;;;;;;5059025;28;20669;-56
2022/04/24 03:39:06;;;;;;;3.10;2.90;;;18.90;43.70;;;;;;5061941;28;20642;-57
2022/04/24 03:41:32;;;;;;;2.90;2.80;;;18.90;43.70;;;;;;5060046;28;20352;-56
2022/04/24 03:43:57;;;;;;;3.50;3.30;;;18.90;43.70;;;;;;5059149;28;20695;-56
2022/04/24 03:46:23;;;;;;;3.03;2.90;;;18.90;43.70;;;;;;5062970;28;20687;-58
2022/04/24 03:48:48;;;;;;;2.60;2.50;;;18.90;43.70;;;;;;5063747;28;20659;-56
2022/04/24 03:51:14;;;;;;;3.47;3.27;;;18.90;43.70;;;;;;5062690;28;20218;-59
2022/04/24 03:53:39;;;;;;;2.83;2.70;;;18.90;43.70;;;;;;5060875;28;20233;-56
2022/04/24 03:56:05;;;;;;;3.60;3.33;;;18.90;43.70;;;;;;5058189;28;20558;-56
2022/04/24 03:58:30;;;;;;;3.50;2.63;;;18.90;43.70;;;;;;5057718;28;20312;-56
2022/04/24 04:00:56;;;;;;;3.87;3.67;;;18.90;43.70;;;;;;5060961;28;20221;-56
2022/04/24 04:03:22;;;;;;;2.90;2.70;;;18.90;43.70;;;;;;5057408;28;20251;-57
2022/04/24 04:05:47;;;;;;;3.13;2.93;;;18.90;43.70;;;;;;5059259;28;20234;-56
2022/04/24 04:08:13;;;;;;;2.70;2.50;;;18.90;43.70;;;;;;5061827;28;20672;-57
2022/04/24 04:10:39;;;;;;;3.03;2.83;;;18.90;43.70;;;;;;5060476;28;20241;-56
2022/04/24 04:13:08;;;;;;;2.77;2.67;;;18.90;43.70;;;;;;5055659;28;20313;-57
2022/04/24 04:15:35;;;;;;;3.23;3.00;;;18.90;43.70;;;;;;5063309;28;20257;-56
2022/04/24 04:18:01;;;;;;;2.93;2.83;;;18.90;43.70;;;;;;5054596;28;20897;-56
2022/04/24 04:20:26;;;;;;;3.20;3.00;;;18.90;43.70;;;;;;5055283;28;20421;-55
2022/04/24 04:22:52;;;;;;;3.03;2.93;;;18.90;43.70;;;;;;5059838;28;20245;-57
2022/04/24 04:25:22;;;;;;;3.20;3.00;;;18.90;43.70;;;;;;5062226;28;20233;-56
2022/04/24 04:27:48;;;;;;;2.70;2.53;;;18.90;43.70;;;;;;5060827;28;20226;-56
2022/04/24 04:30:14;;;;;;;2.47;2.37;;;18.90;43.70;;;;;;5063238;28;20445;-56
2022/04/24 04:32:39;;;;;;;3.03;2.83;;;18.90;43.70;;;;;;5061341;28;20430;-56
2022/04/24 04:35:09;;;;;;;3.30;3.10;;;18.90;43.70;;;;;;5053939;28;20301;-58
2022/04/24 04:37:39;;;;;;;2.90;2.70;;;18.90;43.70;;;;;;5055693;28;20428;-56
2022/04/24 04:40:06;;;;;;;2.87;2.67;;;18.80;43.60;;;;;;5058708;28;20505;-56
2022/04/24 04:42:32;;;;;;;2.83;2.73;;;18.90;43.70;;;;;;5063715;28;20644;-58
2022/04/24 04:45:00;;;;;;;3.27;3.07;;;18.90;43.70;;;;;;5056962;28;20524;-56
2022/04/24 04:47:27;;;;;;;2.63;2.53;;;18.90;43.70;;;;;;5060776;28;20245;-57
2022/04/24 04:49:53;;;;;;;3.03;2.90;;;18.90;43.70;;;;;;5055661;28;20466;-56
2022/04/24 04:52:19;;;;;;;3.20;3.00;;;18.90;43.70;;;;;;5055479;28;20466;-56
2022/04/24 04:54:44;;;;;;;3.20;3.00;;;18.90;43.70;;;;;;5056459;28;20447;-57
2022/04/24 04:57:10;;;;;;;2.73;2.60;;;18.90;43.70;;;;;;5059668;28;20260;-56
2022/04/24 04:59:36;;;;;;;2.73;2.57;;;18.90;43.70;;;;;;5063447;28;20230;-56
2022/04/24 05:02:01;;;;;;;3.40;3.20;;;18.90;43.70;;;;;;5057143;28;20229;-57
2022/04/24 05:04:27;;;;;;;3.60;3.40;;;18.90;43.80;;;;;;5058439;28;20447;-56
2022/04/24 05:06:53;;;;;;;3.50;3.30;;;18.90;43.70;;;;;;5058535;28;20242;-55
2022/04/24 05:09:18;;;;;;;3.30;3.20;;;18.90;43.70;;;;;;5048231;28;95123;-57
2022/04/24 05:11:44;;;;;;;2.93;2.80;;;18.90;43.70;;;;;;5047725;28;20597;-56
2022/04/24 05:14:09;;;;;;;3.43;3.23;;;18.90;43.70;;;;;;5057804;28;20591;-55
2022/04/24 05:16:35;;;;;;;3.40;3.20;;;18.90;43.70;;;;;;5059777;28;20226;-55
2022/04/24 05:19:00;;;;;;;3.03;2.83;;;18.90;43.70;;;;;;5060798;28;20221;-56
2022/04/24 05:21:26;;;;;;;3.07;2.90;;;18.90;43.70;;;;;;5061839;28;20689;-57
2022/04/24 05:23:52;;;;;;;3.10;2.93;;;18.90;43.70;;;;;;5059963;28;20229;-56
2022/04/24 05:26:18;;;;;;;3.37;3.17;;;18.90;43.70;;;;;;5057957;28;20245;-55
2022/04/24 05:28:45;;;;;;;3.40;3.20;;;18.90;43.70;;;;;;5061689;28;20414;-59
2022/04/24 05:31:11;;;;;;;3.27;3.07;;;18.90;43.70;;;;;;5062203;28;20497;-56
2022/04/24 05:33:37;;;;;;;3.07;2.87;;;18.90;43.70;;;;;;5051096;28;20485;-57
2022/04/24 05:36:04;;;;;;;3.80;3.60;;;18.90;43.70;;;;;;5058452;28;20267;-57
2022/04/24 05:38:30;;;;;;;3.53;3.33;;;18.90;43.70;;;;;;5064054;28;20418;-56
2022/04/24 05:40:56;;;;;;;3.10;2.90;;;18.90;43.70;;;;;;5061839;28;20438;-56
2022/04/24 05:43:21;;;;;;;3.37;3.17;;;19.00;43.80;;;;;;5056872;28;20202;-58
2022/04/24 05:45:47;;;;;;;3.00;2.90;;;18.90;43.70;;;;;;5058656;28;20242;-56
2022/04/24 05:48:13;;;;;;;3.33;3.17;;;18.90;43.70;;;;;;5058973;28;20702;-56
2022/04/24 05:50:39;;;;;;;2.97;2.87;;;19.00;43.70;;;;;;5056791;28;20223;-57
2022/04/24 05:53:05;;;;;;;3.33;3.13;;;19.00;43.80;;;;;;5058695;28;20225;-58
2022/04/24 05:55:31;;;;;;;3.03;2.83;;;19.00;43.80;;;;;;5057681;28;20426;-56
2022/04/24 05:57:56;;;;;;;3.30;3.10;;;19.00;43.80;;;;;;5057685;28;20441;-57
2022/04/24 06:00:23;;;;;;;2.60;2.50;;;18.90;43.60;;;;;;5062428;28;20225;-56
2022/04/24 06:02:48;;;;;;;2.90;2.77;;;19.00;43.60;;;;;;5058646;28;20309;-57
2022/04/24 06:05:14;;;;;;;3.57;3.37;;;19.00;43.50;;;;;;5056529;28;20559;-57
2022/04/24 06:07:40;;;;;;;2.87;2.73;;;19.00;43.60;;;;;;5062892;28;20241;-56
2022/04/24 06:10:08;;;;;;;3.30;3.10;;;19.00;43.50;;;;;;5063656;28;20665;-56
2022/04/24 06:12:54;;;;;;;3.57;3.37;;;19.00;43.60;;;;;;5058330;28;20488;-55
2022/04/24 06:15:24;;;;;;;3.23;3.13;;;19.00;43.60;;;;;;5066157;28;20437;-57
2022/04/24 06:17:51;;;;;;;3.40;3.20;;;19.00;43.40;;;;;;5060839;28;20778;-56
2022/04/24 06:20:18;;;;;;;3.50;3.30;;;19.00;43.50;;;;;;5064459;28;20410;-55
2022/04/24 06:22:46;;;;;;;2.50;2.40;;;19.00;43.60;;;;;;5066843;28;20459;-56
2022/04/24 06:25:23;;;;;;;3.13;2.93;;;19.00;43.60;;;;;;5066065;28;20425;-56
2022/04/24 06:27:50;;;;;;;3.13;3.03;;;19.00;43.50;;;;;;5057689;28;20421;-55
2022/04/24 06:30:17;;;;;;;3.40;3.20;;;19.00;43.50;;;;;;5062096;28;20496;-57
2022/04/24 06:32:43;;;;;;;3.30;3.13;;;19.00;43.40;;;;;;5059909;28;20426;-58
2022/04/24 06:35:11;;;;;;;3.37;3.17;;;19.00;43.50;;;;;;5061068;28;20422;-56
2022/04/24 06:37:38;;;;;;;3.70;3.50;;;19.00;43.40;;;;;;5062747;28;20916;-56
2022/04/24 06:40:05;;;;;;;3.60;3.40;;;19.00;43.30;;;;;;5064153;28;20438;-57
2022/04/24 06:42:31;;;;;;;3.00;2.90;;;19.00;43.30;;;;;;5039617;28;20977;-56
2022/04/24 06:44:57;;;;;;;3.57;3.37;;;19.00;43.30;;;;;;5060637;28;20422;-58
2022/04/24 06:47:22;;;;;;;3.57;3.37;;;19.00;43.30;;;;;;5059906;28;20234;-59
2022/04/24 06:49:48;;;;;;;3.43;3.23;;;19.00;43.30;;;;;;5062910;28;20767;-59
2022/04/24 06:52:13;;;;;;;3.70;3.50;;;19.00;43.20;;;;;;5064633;28;20230;-57
2022/04/24 06:54:39;;;;;;;3.30;3.10;;;19.00;43.20;;;;;;5064955;28;20218;-58
2022/04/24 06:57:05;;;;;;;3.53;3.33;;;19.10;43.20;;;;;;5060646;28;20571;-57
2022/04/24 06:59:30;;;;;;;3.87;3.67;;;19.10;43.20;;;;;;5062923;28;20221;-57
2022/04/24 07:01:56;;;;;;;3.13;2.93;;;19.10;43.10;;;;;;5057528;28;20215;-56
2022/04/24 07:04:21;;;;;;;3.50;3.30;;;19.10;43.10;;;;;;5057157;28;20401;-56
2022/04/24 07:06:47;;;;;;;3.60;3.40;;;19.10;43.10;;;;;;5061870;28;20237;-56
2022/04/24 07:09:13;;;;;;;3.67;3.47;;;19.10;43.10;;;;;;5059795;28;20242;-57
2022/04/24 07:11:40;;;;;;;3.93;3.63;;;19.10;43.10;;;;;;5058362;28;20228;-56
2022/04/24 07:14:06;;;;;;;3.50;3.30;;;19.10;43.10;;;;;;5063409;28;20421;-57
2022/04/24 07:16:34;;;;;;;4.40;4.10;;;19.10;43.10;;;;;;5065620;28;20482;-56
2022/04/24 07:19:00;;;;;;;3.70;3.50;;;19.10;43.00;;;;;;5055001;28;20422;-56
2022/04/24 07:21:25;;;;;;;3.70;3.50;;;19.10;43.00;;;;;;5061428;28;20419;-56
2022/04/24 07:23:51;;;;;;;3.80;3.60;;;19.10;43.00;;;;;;5061144;28;20314;-56
2022/04/24 07:26:16;;;;;;;4.00;3.70;;;19.10;43.10;;;;;;5054006;28;20672;-56
2022/04/24 07:28:42;;;;;;;3.50;3.30;;;19.10;43.00;;;;;;5063044;28;20660;-58
2022/04/24 07:31:07;;;;;;;3.60;3.40;;;19.10;43.00;;;;;;5058787;28;20737;-56
2022/04/24 07:33:34;;;;;;;3.60;3.40;;;19.10;43.00;;;;;;5059219;28;20222;-57
2022/04/24 07:36:00;;;;;;;3.70;3.50;;;19.10;43.00;;;;;;5063090;28;20650;-57
2022/04/24 07:38:25;;;;;;;3.30;3.10;;;19.10;43.00;;;;;;5061190;28;20450;-57
2022/04/24 07:40:51;;;;;;;4.00;3.77;;;19.10;43.00;;;;;;5058139;28;20210;-57
2022/04/24 07:43:17;;;;;;;3.33;3.20;;;19.10;43.00;;;;;;5059319;28;20294;-57
2022/04/24 07:45:44;;;;;;;3.00;2.90;;;19.10;43.00;;;;;;5060216;28;20226;-59
2022/04/24 07:48:14;;;;;;;2.70;2.60;;;19.10;43.00;;;;;;5055738;28;20217;-59
2022/04/24 07:50:42;;;;;;;3.10;2.90;;;19.10;43.00;;;;;;5064596;28;20418;-59
2022/04/24 07:53:09;;;;;;;3.23;3.03;;;19.10;43.00;;;;;;5061153;28;21000;-57
2022/04/24 07:55:35;;;;;;;3.80;3.60;;;19.10;43.00;;;;;;5058395;28;20434;-57
2022/04/24 07:58:01;;;;;;;3.30;3.10;;;19.10;43.00;;;;;;5060449;28;20448;-56
2022/04/24 08:00:29;;;;;;;4.43;3.30;;;19.10;43.00;;;;;;5062608;28;20233;-57
2022/04/24 08:02:57;;;;;;;3.80;3.60;;;19.10;43.00;;;;;;5057172;28;20429;-57
2022/04/24 08:05:31;;;;;;;3.60;3.40;;;19.10;43.00;;;;;;5062774;28;20930;-57
2022/04/24 08:08:02;;;;;;;4.20;3.90;;;19.10;43.00;;;;;;5060687;28;20451;-57
2022/04/24 08:10:30;;;;;;;3.60;3.40;;;19.10;43.10;;;;;;5052505;28;20478;-59
2022/04/24 08:12:56;;;;;;;3.50;3.30;;;19.10;43.10;;;;;;5062205;28;20423;-56
2022/04/24 08:15:23;;;;;;;3.50;3.30;;;19.10;43.10;;;;;;5065695;28;20774;-59
2022/04/24 08:17:48;;;;;;;3.37;3.17;;;19.10;43.10;;;;;;5056446;28;20229;-57
2022/04/24 08:20:15;;;;;;;3.77;3.47;;;19.10;43.10;;;;;;5058755;28;20494;-58
2022/04/24 08:22:45;;;;;;;3.33;3.13;;;19.10;43.10;;;;;;5063441;28;20218;-56
2022/04/24 08:25:13;;;;;;;3.50;3.30;;;19.10;43.10;;;;;;5057369;28;20775;-57
2022/04/24 08:27:39;;;;;;;3.50;3.30;;;19.10;43.10;;;;;;5061293;28;20445;-56
2022/04/24 08:30:07;;;;;;;4.30;4.00;;;19.10;43.00;;;;;;5059638;28;20481;-57
2022/04/24 08:32:33;;;;;;;3.60;3.40;;;19.10;43.10;;;;;;5056393;28;20428;-56
2022/04/24 08:34:59;;;;;;;4.40;3.80;;;19.10;43.10;;;;;;5058616;28;20809;-56
2022/04/24 08:37:25;;;;;;;3.30;3.10;;;19.10;43.10;;;;;;5057413;28;20914;-56
2022/04/24 08:39:52;;;;;;;3.60;3.40;;;19.10;43.10;;;;;;5054953;28;20286;-56
2022/04/24 08:42:21;;;;;;;3.63;3.20;;;19.10;43.10;;;;;;5056983;28;20914;-58
2022/04/24 08:44:48;;;;;;;3.87;3.67;;;19.10;43.10;;;;;;5059997;28;20432;-58
2022/04/24 08:47:15;;;;;;;3.60;3.40;;;19.10;43.10;;;;;;5055209;28;20430;-61
2022/04/24 08:49:42;;;;;;;4.00;3.70;;;19.10;43.00;;;;;;5058863;28;20459;-57
2022/04/24 08:52:09;;;;;;;3.53;3.33;;;19.10;43.00;;;;;;5065468;28;20782;-56
2022/04/24 08:54:36;;;;;;;8.23;3.93;;;19.10;43.00;;;;;;5057160;28;20447;-58
2022/04/24 08:57:01;;;;;;;8.93;4.47;;;19.10;43.00;;;;;;5052288;28;20445;-56
2022/04/24 08:59:27;;;;;;;9.33;4.23;;;19.10;43.00;;;;;;5062331;28;20452;-59
2022/04/24 09:01:57;;;;;;;8.13;4.30;;;19.10;43.00;;;;;;5057059;28;20274;-58
2022/04/24 09:04:23;;;;;;;4.90;3.87;;;19.20;43.00;;;;;;5059801;28;20841;-57
2022/04/24 09:06:59;;;;;;;6.47;3.60;;;19.10;43.00;;;;;;5059884;28;20541;-57
2022/04/24 09:09:25;;;;;;;5.73;4.43;;;19.10;42.90;;;;;;5059897;28;20239;-57
2022/04/24 09:11:51;;;;;;;13.03;4.33;;;19.10;43.00;;;;;;5055337;28;20411;-59
2022/04/24 09:14:23;;;;;;;4.20;3.80;;;19.10;43.10;;;;;;5027325;28;20500;-56
2022/04/24 09:16:49;;;;;;;5.20;4.70;;;19.10;43.00;;;;;;5058220;28;20218;-58
2022/04/24 09:19:20;;;;;;;5.70;3.90;;;19.10;43.10;;;;;;5059124;28;20478;-57
2022/04/24 09:21:49;;;;;;;10.07;4.00;;;19.20;43.10;;;;;;5060851;28;20428;-57
2022/04/24 09:24:16;;;;;;;4.27;3.90;;;19.20;43.10;;;;;;5054509;28;20450;-56
2022/04/24 09:26:59;;;;;;;5.80;4.27;;;19.20;43.10;;;;;;5059532;28;20427;-57
2022/04/24 09:29:25;;;;;;;6.63;4.30;;;19.20;43.00;;;;;;5061656;28;20751;-57
2022/04/24 09:31:51;;;;;;;4.67;3.93;;;19.20;43.10;;;;;;5060750;28;20853;-58
2022/04/24 09:34:21;;;;;;;5.90;3.77;;;19.20;43.10;;;;;;5057344;28;20500;-58
2022/04/24 09:36:59;;;;;;;5.77;4.40;;;19.20;43.10;;;;;;5063231;28;20425;-56
2022/04/24 09:39:35;;;;;;;5.57;4.37;;;19.20;43.10;;;;;;5057362;28;21022;-57
2022/04/24 09:42:09;;;;;;;3.73;3.53;;;19.20;43.10;;;;;;5064204;28;20449;-57
2022/04/24 09:44:42;;;;;;;4.30;3.90;;;19.20;43.10;;;;;;5061711;28;20444;-57
2022/04/24 09:47:09;;;;;;;5.80;4.50;;;19.20;43.20;;;;;;5066626;28;20545;-60
2022/04/24 09:49:42;;;;;;;4.87;4.47;;;19.20;43.20;;;;;;5063097;28;20426;-57
2022/04/24 09:52:12;;;;;;;6.93;4.37;;;19.10;43.10;;;;;;5065402;28;20505;-56
2022/04/24 09:54:40;;;;;;;5.00;4.57;;;19.20;43.20;;;;;;5061227;28;20452;-57
2022/04/24 09:57:09;;;;;;;5.90;5.30;;;19.20;43.20;;;;;;5061493;28;20558;-58
2022/04/24 09:59:37;;;;;;;5.00;3.80;;;19.20;43.20;;;;;;5061350;28;20406;-57
2022/04/24 10:02:04;;;;;;;5.27;4.87;;;19.20;43.30;;;;;;5056058;28;20446;-56
2022/04/24 10:04:29;;;;;;;5.10;4.67;;;19.20;43.30;;;;;;5064937;28;21085;-57
2022/04/24 10:06:56;;;;;;;4.60;4.20;;;19.10;43.20;;;;;;5045834;28;20452;-61
2022/04/24 10:09:24;;;;;;;4.03;3.60;;;19.20;43.30;;;;;;5059046;28;20231;-58
2022/04/24 10:11:50;;;;;;;4.90;4.47;;;19.20;43.20;;;;;;5059855;28;20606;-59
2022/04/24 10:14:17;;;;;;;4.33;3.93;;;19.20;43.30;;;;;;5063677;28;20455;-57
2022/04/24 10:16:51;;;;;;;4.23;3.87;;;19.10;43.30;;;;;;5062983;28;20490;-59
2022/04/24 10:19:43;;;;;;;4.90;4.40;;;19.10;43.30;;;;;;5061436;28;20587;-57
2022/04/24 10:22:25;;;;;;;4.43;4.03;;;19.10;43.30;;;;;;5061352;28;20450;-57
2022/04/24 10:24:59;;;;;;;4.60;4.20;;;19.10;43.20;;;;;;5062923;28;20430;-60
2022/04/24 10:27:38;;;;;;;4.83;4.53;;;19.10;43.30;;;;;;5061293;28;20446;-57
2022/04/24 10:30:05;;;;;;;4.77;4.47;;;19.10;43.30;;;;;;5060852;28;20417;-57
2022/04/24 10:32:30;;;;;;;4.67;4.33;;;19.10;43.40;;;;;;5063803;28;20869;-56
2022/04/24 10:34:56;;;;;;;4.23;3.97;;;19.10;43.40;;;;;;5059113;28;20537;-56
2022/04/24 10:37:40;;;;;;;4.33;4.03;;;19.10;43.40;;;;;;5062036;28;20221;-60
2022/04/24 10:40:16;;;;;;;4.30;4.00;;;19.10;43.40;;;;;;5041427;28;20663;-57
2022/04/24 10:42:43;;;;;;;7.27;4.97;;;19.10;43.40;;;;;;5060933;28;20475;-57
2022/04/24 10:45:14;;;;;;;4.50;4.23;;;19.10;43.40;;;;;;5064043;28;20907;-57
2022/04/24 10:48:03;;;;;;;6.33;4.50;;;19.10;43.50;;;;;;5064000;28;20944;-59
2022/04/24 10:50:29;;;;;;;4.77;4.33;;;19.10;43.50;;;;;;5064193;28;20426;-57
2022/04/24 10:52:55;;;;;;;4.30;4.10;;;19.10;43.50;;;;;;5060714;28;20421;-57
2022/04/24 10:55:29;;;;;;;4.63;4.33;;;19.10;43.40;;;;;;5059228;28;20257;-58
2022/04/24 10:58:00;;;;;;;5.10;4.70;;;19.10;43.40;;;;;;5063576;28;20489;-57
2022/04/24 11:00:34;;;;;;;5.60;4.43;;;19.10;43.50;;;;;;5060090;28;20523;-57
2022/04/24 11:03:14;;;;;;;4.83;4.53;;;19.10;43.50;;;;;;5058439;28;20457;-58
2022/04/24 11:05:42;;;;;;;4.70;4.40;;;19.10;43.50;;;;;;5062821;28;20429;-56
2022/04/24 11:08:10;;;;;;;4.60;4.30;;;19.10;43.40;;;;;;5061410;28;20920;-55
2022/04/24 11:10:43;;;;;;;6.80;4.50;;;19.10;43.50;;;;;;5060957;28;20437;-55
2022/04/24 11:13:11;;;;;;;5.90;5.40;;;19.20;43.50;;;;;;5058356;28;20431;-56
2022/04/24 11:15:42;;;;;;;6.37;5.07;;;19.20;43.60;;;;;;5053199;28;20419;-56
2022/04/24 11:18:36;;;;;;;5.30;4.87;;;19.20;43.60;;;;;;5063991;28;20422;-55
2022/04/24 11:21:04;;;;;;;5.40;4.83;;;19.20;43.60;;;;;;5062301;28;20419;-56
2022/04/24 11:23:39;;;;;;;5.57;5.07;;;19.20;43.60;;;;;;5054401;28;20439;-56
2022/04/24 11:26:09;;;;;;;4.77;4.37;;;19.10;43.50;;;;;;5059756;28;20449;-55
2022/04/24 11:28:44;;;;;;;5.27;4.87;;;19.10;44.30;;;;;;5060429;28;20834;-55
2022/04/24 11:31:20;;;;;;;5.47;5.07;;;19.10;43.50;;;;;;5057870;28;20455;-57
2022/04/24 11:33:55;;;;;;;5.73;5.33;;;19.10;43.50;;;;;;5064999;28;20447;-57
2022/04/24 11:36:22;;;;;;;5.60;5.27;;;19.20;43.70;;;;;;5059192;28;20446;-56
2022/04/24 11:38:49;;;;;;;6.57;6.00;;;19.20;43.60;;;;;;5058675;28;20449;-56
2022/04/24 11:41:15;;;;;;;5.60;5.30;;;19.20;44.50;;;;;;5062817;28;20428;-56
2022/04/24 11:43:41;;;;;;;5.73;5.20;;;19.20;43.60;;;;;;5065633;28;20450;-56
2022/04/24 11:51:50;;;;;;;6.00;5.60;;;19.20;43.60;;;;;;5021126;28;20932;-57
2022/04/24 11:54:16;;;;;;;5.13;4.73;;;19.20;43.60;;;;;;5059020;28;20453;-57
2022/04/24 11:56:41;;;;;;;6.60;6.10;;;19.20;43.60;;;;;;5064625;28;20521;-56
2022/04/24 11:59:19;;;;;;;6.20;5.67;;;19.20;43.50;;;;;;5057532;28;20438;-56
2022/04/24 12:01:55;;;;;;;6.60;6.13;;;19.20;43.50;;;;;;5065367;28;20214;-56
2022/04/24 12:04:21;;;;;;;5.67;5.37;;;19.20;43.50;;;;;;5060135;28;20454;-56
2022/04/24 12:06:48;;;;;;;5.67;5.27;;;19.20;43.50;;;;;;5058560;28;20466;-56
2022/04/24 12:09:14;;;;;;;6.37;5.77;;;19.20;43.50;;;;;;5058140;28;20467;-57
2022/04/24 12:11:40;;;;;;;6.60;6.00;;;19.20;43.50;;;;;;5063346;28;20406;-57
2022/04/24 12:14:08;;;;;;;6.50;6.00;;;19.20;43.60;;;;;;5063254;28;20488;-56
2022/04/24 12:16:35;;;;;;;6.10;5.50;;;19.20;43.50;;;;;;5064021;28;20233;-57
2022/04/24 12:19:01;;;;;;;6.43;5.90;;;19.20;43.50;;;;;;5062530;28;20485;-57
2022/04/24 12:21:31;;;;;;;6.10;5.70;;;19.20;43.60;;;;;;5062252;28;20535;-57
2022/04/24 12:23:58;;;;;;;7.37;6.73;;;19.20;43.60;;;;;;5057061;28;20552;-55
2022/04/24 12:26:24;;;;;;;6.40;6.00;;;19.20;43.60;;;;;;5062224;28;20513;-56
2022/04/24 12:28:49;;;;;;;7.73;5.77;;;19.20;43.70;;;;;;5061422;28;20475;-57
2022/04/24 12:31:26;;;;;;;6.57;6.07;;;19.20;43.70;;;;;;5059274;28;20436;-57
2022/04/24 12:33:57;;;;;;;6.07;5.57;;;19.20;43.70;;;;;;5061759;28;20698;-57
2022/04/24 12:36:23;;;;;;;6.43;6.03;;;19.20;43.70;;;;;;5057359;28;20444;-57
2022/04/24 12:39:04;;;;;;;7.03;6.33;;;19.20;43.80;;;;;;5060994;28;20430;-57
2022/04/24 12:41:30;;;;;;;7.03;6.50;;;19.20;43.70;;;;;;5060199;28;20454;-56
2022/04/24 12:44:03;;;;;;;6.17;5.77;;;19.20;43.70;;;;;;5062274;28;20978;-56
2022/04/24 12:46:29;;;;;;;6.63;6.23;;;19.20;43.80;;;;;;5055633;28;20433;-56
2022/04/24 12:48:56;;;;;;;6.03;5.53;;;19.20;43.80;;;;;;5061807;28;20425;-55
2022/04/24 12:51:23;;;;;;;6.60;6.17;;;19.20;43.80;;;;;;5060994;28;20805;-55
2022/04/24 12:53:50;;;;;;;6.33;5.93;;;19.20;43.90;;;;;;5059007;28;21236;-56
2022/04/24 12:56:16;;;;;;;6.80;6.30;;;19.20;43.80;;;;;;5062230;28;20417;-56